sensor_id;sensor_type;location;lat;lon;timestamp;P1;durP1;ratioP1;P2;durP2;ratioP2
34960;SDS011;30789;52.030;7.110;2022-09-27T00:00:08;2.85;;;0.88;;
34960;SDS011;30789;52.030;7.110;2022-09-27T00:02:36;5.43;;;1.00;;
34960;SDS011;30789;52.030;7.110;2022-09-27T00:05:04;3.50;;;1.10;;
34960;SDS011;30789;52.030;7.110;2022-09-27T00:07:31;4.28;;;0.80;;
34960;SDS011;30789;52.030;7.110;2022-09-27T00:09:57;2.63;;;0.90;;
34960;SDS011;30789;52.030;7.110;2022-09-27T00:12:23;6.00;;;0.90;;
34960;SDS011;30789;52.030;7.110;2022-09-27T00:14:50;8.65;;;0.90;;
34960;SDS011;30789;52.030;7.110;2022-09-27T00:17:16;6.90;;;1.02;;
34960;SDS011;30789;52.030;7.110;2022-09-27T00:19:44;1.95;;;0.80;;
34960;SDS011;30789;52.030;7.110;2022-09-27T00:22:10;4.32;;;0.63;;
34960;SDS011;30789;52.030;7.110;2022-09-27T00:24:36;7.68;;;0.90;;
34960;SDS011;30789;52.030;7.110;2022-09-27T00:27:03;3.20;;;0.80;;
34960;SDS011;30789;52.030;7.110;2022-09-27T00:29:29;2.50;;;0.90;;
34960;SDS011;30789;52.030;7.110;2022-09-27T00:31:56;1.63;;;0.60;;
34960;SDS011;30789;52.030;7.110;2022-09-27T00:34:23;3.83;;;0.73;;
34960;SDS011;30789;52.030;7.110;2022-09-27T00:36:51;6.07;;;0.80;;
34960;SDS011;30789;52.030;7.110;2022-09-27T00:39:17;4.18;;;1.17;;
34960;SDS011;30789;52.030;7.110;2022-09-27T00:41:44;3.65;;;0.90;;
34960;SDS011;30789;52.030;7.110;2022-09-27T00:46:58;5.18;;;0.85;;
34960;SDS011;30789;52.030;7.110;2022-09-27T00:49:27;6.13;;;0.93;;
34960;SDS011;30789;52.030;7.110;2022-09-27T00:51:57;4.55;;;1.13;;
34960;SDS011;30789;52.030;7.110;2022-09-27T00:54:24;1.80;;;0.68;;
34960;SDS011;30789;52.030;7.110;2022-09-27T00:56:51;3.38;;;0.90;;
34960;SDS011;30789;52.030;7.110;2022-09-27T00:59:18;5.05;;;1.20;;
34960;SDS011;30789;52.030;7.110;2022-09-27T01:01:45;2.88;;;0.68;;
34960;SDS011;30789;52.030;7.110;2022-09-27T01:04:14;2.42;;;1.10;;
34960;SDS011;30789;52.030;7.110;2022-09-27T01:06:42;4.28;;;1.33;;
34960;SDS011;30789;52.030;7.110;2022-09-27T01:09:10;3.15;;;0.95;;
34960;SDS011;30789;52.030;7.110;2022-09-27T01:11:40;5.00;;;0.93;;
34960;SDS011;30789;52.030;7.110;2022-09-27T01:14:22;2.38;;;1.10;;
34960;SDS011;30789;52.030;7.110;2022-09-27T01:16:51;2.45;;;1.08;;
34960;SDS011;30789;52.030;7.110;2022-09-27T01:19:26;4.40;;;1.10;;
34960;SDS011;30789;52.030;7.110;2022-09-27T01:21:57;4.45;;;1.40;;
34960;SDS011;30789;52.030;7.110;2022-09-27T01:29:59;5.47;;;1.10;;
34960;SDS011;30789;52.030;7.110;2022-09-27T01:32:30;4.53;;;1.20;;
34960;SDS011;30789;52.030;7.110;2022-09-27T01:34:59;3.92;;;0.98;;
34960;SDS011;30789;52.030;7.110;2022-09-27T01:37:29;3.63;;;1.00;;
34960;SDS011;30789;52.030;7.110;2022-09-27T01:40:00;2.85;;;0.90;;
34960;SDS011;30789;52.030;7.110;2022-09-27T01:42:31;2.38;;;0.88;;
34960;SDS011;30789;52.030;7.110;2022-09-27T01:45:02;3.47;;;1.08;;
34960;SDS011;30789;52.030;7.110;2022-09-27T01:47:32;2.10;;;0.70;;
34960;SDS011;30789;52.030;7.110;2022-09-27T01:50:01;1.13;;;0.70;;
34960;SDS011;30789;52.030;7.110;2022-09-27T01:52:29;2.83;;;0.77;;
34960;SDS011;30789;52.030;7.110;2022-09-27T01:54:57;4.68;;;0.77;;
34960;SDS011;30789;52.030;7.110;2022-09-27T01:57:26;1.05;;;0.60;;
34960;SDS011;30789;52.030;7.110;2022-09-27T01:59:53;2.45;;;0.68;;
34960;SDS011;30789;52.030;7.110;2022-09-27T02:02:22;3.28;;;0.73;;
34960;SDS011;30789;52.030;7.110;2022-09-27T02:04:51;2.92;;;0.90;;
34960;SDS011;30789;52.030;7.110;2022-09-27T02:07:22;1.65;;;0.70;;
34960;SDS011;30789;52.030;7.110;2022-09-27T02:09:50;2.97;;;0.82;;
34960;SDS011;30789;52.030;7.110;2022-09-27T02:12:19;4.57;;;0.80;;
34960;SDS011;30789;52.030;7.110;2022-09-27T02:14:47;1.55;;;0.75;;
34960;SDS011;30789;52.030;7.110;2022-09-27T02:17:18;2.60;;;0.80;;
34960;SDS011;30789;52.030;7.110;2022-09-27T02:19:48;2.45;;;0.70;;
34960;SDS011;30789;52.030;7.110;2022-09-27T02:22:20;2.97;;;0.82;;
34960;SDS011;30789;52.030;7.110;2022-09-27T02:24:49;3.65;;;0.75;;
34960;SDS011;30789;52.030;7.110;2022-09-27T02:27:19;3.72;;;0.98;;
34960;SDS011;30789;52.030;7.110;2022-09-27T02:29:48;2.95;;;0.88;;
34960;SDS011;30789;52.030;7.110;2022-09-27T02:32:15;3.20;;;0.88;;
34960;SDS011;30789;52.030;7.110;2022-09-27T02:34:42;3.83;;;1.17;;
34960;SDS011;30789;52.030;7.110;2022-09-27T02:37:09;3.33;;;0.88;;
34960;SDS011;30789;52.030;7.110;2022-09-27T02:39:37;1.35;;;1.10;;
34960;SDS011;30789;52.030;7.110;2022-09-27T02:42:03;4.32;;;1.00;;
34960;SDS011;30789;52.030;7.110;2022-09-27T02:44:30;4.93;;;1.08;;
34960;SDS011;30789;52.030;7.110;2022-09-27T02:49:43;2.67;;;0.80;;
34960;SDS011;30789;52.030;7.110;2022-09-27T02:52:15;3.53;;;1.30;;
34960;SDS011;30789;52.030;7.110;2022-09-27T02:54:47;3.05;;;1.40;;
34960;SDS011;30789;52.030;7.110;2022-09-27T02:57:20;3.40;;;1.00;;
34960;SDS011;30789;52.030;7.110;2022-09-27T02:59:52;2.40;;;0.90;;
34960;SDS011;30789;52.030;7.110;2022-09-27T03:02:20;0.60;;;0.60;;
34960;SDS011;30789;52.030;7.110;2022-09-27T03:04:50;2.95;;;0.98;;
34960;SDS011;30789;52.030;7.110;2022-09-27T03:07:19;1.42;;;0.93;;
34960;SDS011;30789;52.030;7.110;2022-09-27T03:09:48;2.20;;;0.90;;
34960;SDS011;30789;52.030;7.110;2022-09-27T03:12:14;2.10;;;0.90;;
34960;SDS011;30789;52.030;7.110;2022-09-27T03:14:44;7.80;;;1.13;;
34960;SDS011;30789;52.030;7.110;2022-09-27T03:17:11;3.35;;;0.70;;
34960;SDS011;30789;52.030;7.110;2022-09-27T03:19:37;2.58;;;0.88;;
34960;SDS011;30789;52.030;7.110;2022-09-27T03:22:03;1.65;;;0.98;;
34960;SDS011;30789;52.030;7.110;2022-09-27T03:24:30;4.40;;;0.70;;
34960;SDS011;30789;52.030;7.110;2022-09-27T03:26:57;2.47;;;0.50;;
34960;SDS011;30789;52.030;7.110;2022-09-27T03:29:24;2.53;;;0.70;;
34960;SDS011;30789;52.030;7.110;2022-09-27T03:31:50;7.20;;;0.82;;
34960;SDS011;30789;52.030;7.110;2022-09-27T03:34:16;1.27;;;0.70;;
34960;SDS011;30789;52.030;7.110;2022-09-27T03:36:43;2.67;;;0.80;;
34960;SDS011;30789;52.030;7.110;2022-09-27T03:39:09;2.13;;;0.75;;
34960;SDS011;30789;52.030;7.110;2022-09-27T03:41:35;1.50;;;0.55;;
34960;SDS011;30789;52.030;7.110;2022-09-27T03:44:03;1.77;;;0.73;;
34960;SDS011;30789;52.030;7.110;2022-09-27T03:46:29;0.85;;;0.43;;
34960;SDS011;30789;52.030;7.110;2022-09-27T03:48:56;4.75;;;0.88;;
34960;SDS011;30789;52.030;7.110;2022-09-27T03:51:22;2.30;;;0.63;;
34960;SDS011;30789;52.030;7.110;2022-09-27T03:53:48;4.05;;;0.95;;
34960;SDS011;30789;52.030;7.110;2022-09-27T03:56:15;2.28;;;0.80;;
34960;SDS011;30789;52.030;7.110;2022-09-27T03:58:41;1.45;;;0.63;;
34960;SDS011;30789;52.030;7.110;2022-09-27T04:01:09;3.75;;;0.70;;
34960;SDS011;30789;52.030;7.110;2022-09-27T04:03:36;1.70;;;0.73;;
34960;SDS011;30789;52.030;7.110;2022-09-27T04:06:02;1.33;;;0.60;;
34960;SDS011;30789;52.030;7.110;2022-09-27T04:08:29;3.10;;;0.70;;
34960;SDS011;30789;52.030;7.110;2022-09-27T04:10:55;0.70;;;0.52;;
34960;SDS011;30789;52.030;7.110;2022-09-27T04:13:22;2.00;;;0.60;;
34960;SDS011;30789;52.030;7.110;2022-09-27T04:15:48;5.55;;;0.80;;
34960;SDS011;30789;52.030;7.110;2022-09-27T04:18:16;2.97;;;0.80;;
34960;SDS011;30789;52.030;7.110;2022-09-27T04:20:43;4.50;;;0.65;;
34960;SDS011;30789;52.030;7.110;2022-09-27T04:23:09;1.08;;;0.50;;
34960;SDS011;30789;52.030;7.110;2022-09-27T04:25:35;1.33;;;0.85;;
34960;SDS011;30789;52.030;7.110;2022-09-27T04:28:04;1.85;;;0.70;;
34960;SDS011;30789;52.030;7.110;2022-09-27T04:30:30;1.65;;;1.00;;
34960;SDS011;30789;52.030;7.110;2022-09-27T04:32:57;3.40;;;1.35;;
34960;SDS011;30789;52.030;7.110;2022-09-27T04:35:24;3.70;;;1.30;;
34960;SDS011;30789;52.030;7.110;2022-09-27T04:38:08;3.72;;;1.70;;
34960;SDS011;30789;52.030;7.110;2022-09-27T04:40:35;3.88;;;1.27;;
34960;SDS011;30789;52.030;7.110;2022-09-27T04:43:01;2.90;;;1.33;;
34960;SDS011;30789;52.030;7.110;2022-09-27T04:45:28;5.55;;;1.65;;
34960;SDS011;30789;52.030;7.110;2022-09-27T04:47:54;4.43;;;1.70;;
34960;SDS011;30789;52.030;7.110;2022-09-27T04:50:21;6.88;;;1.65;;
34960;SDS011;30789;52.030;7.110;2022-09-27T04:52:50;2.85;;;1.70;;
34960;SDS011;30789;52.030;7.110;2022-09-27T04:55:17;2.60;;;1.40;;
34960;SDS011;30789;52.030;7.110;2022-09-27T04:57:44;4.57;;;1.85;;
34960;SDS011;30789;52.030;7.110;2022-09-27T05:00:11;6.60;;;2.03;;
34960;SDS011;30789;52.030;7.110;2022-09-27T05:02:37;2.35;;;1.80;;
34960;SDS011;30789;52.030;7.110;2022-09-27T05:05:04;5.03;;;1.95;;
34960;SDS011;30789;52.030;7.110;2022-09-27T05:07:32;5.30;;;1.70;;
34960;SDS011;30789;52.030;7.110;2022-09-27T05:09:59;2.08;;;1.10;;
34960;SDS011;30789;52.030;7.110;2022-09-27T05:12:26;3.00;;;1.25;;
34960;SDS011;30789;52.030;7.110;2022-09-27T05:14:52;2.10;;;1.33;;
34960;SDS011;30789;52.030;7.110;2022-09-27T05:17:18;2.90;;;1.13;;
34960;SDS011;30789;52.030;7.110;2022-09-27T05:19:46;6.97;;;1.40;;
34960;SDS011;30789;52.030;7.110;2022-09-27T05:22:12;3.00;;;1.40;;
34960;SDS011;30789;52.030;7.110;2022-09-27T05:24:39;3.60;;;1.17;;
34960;SDS011;30789;52.030;7.110;2022-09-27T05:27:07;5.75;;;1.45;;
34960;SDS011;30789;52.030;7.110;2022-09-27T05:29:34;3.97;;;1.50;;
34960;SDS011;30789;52.030;7.110;2022-09-27T05:32:01;3.42;;;1.55;;
34960;SDS011;30789;52.030;7.110;2022-09-27T05:34:27;1.95;;;1.30;;
34960;SDS011;30789;52.030;7.110;2022-09-27T05:36:55;3.45;;;1.50;;
34960;SDS011;30789;52.030;7.110;2022-09-27T05:39:21;3.80;;;1.60;;
34960;SDS011;30789;52.030;7.110;2022-09-27T05:41:48;7.63;;;1.90;;
34960;SDS011;30789;52.030;7.110;2022-09-27T05:44:16;3.35;;;1.55;;
34960;SDS011;30789;52.030;7.110;2022-09-27T05:46:42;2.67;;;1.30;;
34960;SDS011;30789;52.030;7.110;2022-09-27T05:49:10;3.22;;;1.38;;
34960;SDS011;30789;52.030;7.110;2022-09-27T05:51:36;3.13;;;1.35;;
34960;SDS011;30789;52.030;7.110;2022-09-27T05:54:03;6.72;;;1.83;;
34960;SDS011;30789;52.030;7.110;2022-09-27T05:56:29;4.28;;;2.03;;
34960;SDS011;30789;52.030;7.110;2022-09-27T05:58:56;3.00;;;2.10;;
34960;SDS011;30789;52.030;7.110;2022-09-27T06:01:23;4.32;;;2.22;;
34960;SDS011;30789;52.030;7.110;2022-09-27T06:03:52;6.50;;;2.53;;
34960;SDS011;30789;52.030;7.110;2022-09-27T06:06:19;6.88;;;2.47;;
34960;SDS011;30789;52.030;7.110;2022-09-27T06:08:47;6.15;;;2.22;;
34960;SDS011;30789;52.030;7.110;2022-09-27T06:11:14;11.77;;;2.47;;
34960;SDS011;30789;52.030;7.110;2022-09-27T06:13:40;8.45;;;2.50;;
34960;SDS011;30789;52.030;7.110;2022-09-27T06:16:07;4.53;;;2.08;;
34960;SDS011;30789;52.030;7.110;2022-09-27T06:18:36;4.65;;;1.95;;
34960;SDS011;30789;52.030;7.110;2022-09-27T06:21:04;4.32;;;2.08;;
34960;SDS011;30789;52.030;7.110;2022-09-27T06:23:30;3.47;;;1.95;;
34960;SDS011;30789;52.030;7.110;2022-09-27T06:25:59;7.10;;;2.00;;
34960;SDS011;30789;52.030;7.110;2022-09-27T06:28:26;9.80;;;1.90;;
34960;SDS011;30789;52.030;7.110;2022-09-27T06:30:53;3.78;;;1.85;;
34960;SDS011;30789;52.030;7.110;2022-09-27T06:33:19;4.75;;;1.67;;
34960;SDS011;30789;52.030;7.110;2022-09-27T06:35:47;6.82;;;1.77;;
34960;SDS011;30789;52.030;7.110;2022-09-27T06:38:14;5.88;;;1.73;;
34960;SDS011;30789;52.030;7.110;2022-09-27T06:40:41;7.80;;;2.00;;
34960;SDS011;30789;52.030;7.110;2022-09-27T06:43:09;6.07;;;2.08;;
34960;SDS011;30789;52.030;7.110;2022-09-27T06:45:36;5.28;;;1.75;;
34960;SDS011;30789;52.030;7.110;2022-09-27T06:48:03;8.63;;;1.88;;
34960;SDS011;30789;52.030;7.110;2022-09-27T06:50:31;6.63;;;1.50;;
34960;SDS011;30789;52.030;7.110;2022-09-27T06:52:59;4.75;;;1.88;;
34960;SDS011;30789;52.030;7.110;2022-09-27T06:55:26;8.38;;;1.92;;
34960;SDS011;30789;52.030;7.110;2022-09-27T06:57:52;4.13;;;1.77;;
34960;SDS011;30789;52.030;7.110;2022-09-27T07:00:36;7.78;;;1.83;;
34960;SDS011;30789;52.030;7.110;2022-09-27T07:03:02;6.03;;;1.83;;
34960;SDS011;30789;52.030;7.110;2022-09-27T07:05:29;7.47;;;2.17;;
34960;SDS011;30789;52.030;7.110;2022-09-27T07:07:56;7.10;;;1.95;;
34960;SDS011;30789;52.030;7.110;2022-09-27T07:10:24;7.82;;;1.80;;
34960;SDS011;30789;52.030;7.110;2022-09-27T07:12:51;7.20;;;1.58;;
34960;SDS011;30789;52.030;7.110;2022-09-27T07:15:19;5.45;;;1.60;;
34960;SDS011;30789;52.030;7.110;2022-09-27T07:17:46;8.02;;;1.77;;
34960;SDS011;30789;52.030;7.110;2022-09-27T07:20:12;4.07;;;1.67;;
34960;SDS011;30789;52.030;7.110;2022-09-27T07:22:39;8.20;;;1.63;;
34960;SDS011;30789;52.030;7.110;2022-09-27T07:25:06;2.90;;;1.42;;
34960;SDS011;30789;52.030;7.110;2022-09-27T07:27:34;8.13;;;1.77;;
34960;SDS011;30789;52.030;7.110;2022-09-27T07:30:00;6.68;;;1.48;;
34960;SDS011;30789;52.030;7.110;2022-09-27T07:32:27;7.10;;;1.50;;
34960;SDS011;30789;52.030;7.110;2022-09-27T07:34:53;3.80;;;1.45;;
34960;SDS011;30789;52.030;7.110;2022-09-27T07:37:19;2.42;;;0.98;;
34960;SDS011;30789;52.030;7.110;2022-09-27T07:39:46;3.33;;;1.25;;
34960;SDS011;30789;52.030;7.110;2022-09-27T07:42:12;6.07;;;1.30;;
34960;SDS011;30789;52.030;7.110;2022-09-27T07:44:40;8.52;;;1.50;;
34960;SDS011;30789;52.030;7.110;2022-09-27T07:47:06;5.60;;;1.58;;
34960;SDS011;30789;52.030;7.110;2022-09-27T07:49:33;2.38;;;1.15;;
34960;SDS011;30789;52.030;7.110;2022-09-27T07:51:59;3.70;;;1.35;;
34960;SDS011;30789;52.030;7.110;2022-09-27T07:54:26;3.45;;;1.40;;
34960;SDS011;30789;52.030;7.110;2022-09-27T07:56:52;10.00;;;1.70;;
34960;SDS011;30789;52.030;7.110;2022-09-27T07:59:19;5.55;;;1.50;;
34960;SDS011;30789;52.030;7.110;2022-09-27T08:01:47;3.75;;;1.45;;
34960;SDS011;30789;52.030;7.110;2022-09-27T08:04:13;2.78;;;1.10;;
34960;SDS011;30789;52.030;7.110;2022-09-27T08:06:40;3.83;;;1.67;;
34960;SDS011;30789;52.030;7.110;2022-09-27T08:09:06;8.60;;;1.55;;
34960;SDS011;30789;52.030;7.110;2022-09-27T08:11:33;2.28;;;1.20;;
34960;SDS011;30789;52.030;7.110;2022-09-27T08:14:01;3.75;;;1.30;;
34960;SDS011;30789;52.030;7.110;2022-09-27T08:16:28;4.35;;;1.13;;
34960;SDS011;30789;52.030;7.110;2022-09-27T08:18:56;3.40;;;1.58;;
34960;SDS011;30789;52.030;7.110;2022-09-27T08:21:22;1.23;;;0.95;;
34960;SDS011;30789;52.030;7.110;2022-09-27T08:23:48;6.38;;;1.38;;
34960;SDS011;30789;52.030;7.110;2022-09-27T08:26:15;1.80;;;1.10;;
34960;SDS011;30789;52.030;7.110;2022-09-27T08:28:41;3.13;;;1.42;;
34960;SDS011;30789;52.030;7.110;2022-09-27T08:31:07;2.10;;;1.25;;
34960;SDS011;30789;52.030;7.110;2022-09-27T08:33:34;5.28;;;1.63;;
34960;SDS011;30789;52.030;7.110;2022-09-27T08:36:01;3.10;;;1.60;;
34960;SDS011;30789;52.030;7.110;2022-09-27T08:38:28;2.20;;;1.20;;
34960;SDS011;30789;52.030;7.110;2022-09-27T08:40:55;5.93;;;1.52;;
34960;SDS011;30789;52.030;7.110;2022-09-27T08:43:26;1.80;;;1.17;;
34960;SDS011;30789;52.030;7.110;2022-09-27T08:45:58;3.10;;;1.10;;
34960;SDS011;30789;52.030;7.110;2022-09-27T08:48:27;2.80;;;1.10;;
34960;SDS011;30789;52.030;7.110;2022-09-27T08:50:54;4.25;;;1.27;;
34960;SDS011;30789;52.030;7.110;2022-09-27T08:53:24;7.15;;;1.50;;
34960;SDS011;30789;52.030;7.110;2022-09-27T08:55:53;5.00;;;1.30;;
34960;SDS011;30789;52.030;7.110;2022-09-27T08:58:22;1.48;;;1.17;;
34960;SDS011;30789;52.030;7.110;2022-09-27T09:00:50;2.38;;;1.17;;
34960;SDS011;30789;52.030;7.110;2022-09-27T09:03:19;2.72;;;1.05;;
34960;SDS011;30789;52.030;7.110;2022-09-27T09:05:51;1.67;;;1.20;;
34960;SDS011;30789;52.030;7.110;2022-09-27T09:08:25;2.17;;;1.23;;
34960;SDS011;30789;52.030;7.110;2022-09-27T09:10:58;8.35;;;1.95;;
34960;SDS011;30789;52.030;7.110;2022-09-27T09:16:28;1.63;;;1.10;;
34960;SDS011;30789;52.030;7.110;2022-09-27T09:21:26;1.88;;;1.33;;
34960;SDS011;30789;52.030;7.110;2022-09-27T09:24:02;3.55;;;1.63;;
34960;SDS011;30789;52.030;7.110;2022-09-27T09:26:33;3.80;;;1.58;;
34960;SDS011;30789;52.030;7.110;2022-09-27T09:29:06;3.30;;;1.33;;
34960;SDS011;30789;52.030;7.110;2022-09-27T09:31:36;2.63;;;0.90;;
34960;SDS011;30789;52.030;7.110;2022-09-27T09:36:33;1.75;;;0.82;;
34960;SDS011;30789;52.030;7.110;2022-09-27T09:39:02;1.05;;;0.80;;
34960;SDS011;30789;52.030;7.110;2022-09-27T09:41:32;2.15;;;0.90;;
34960;SDS011;30789;52.030;7.110;2022-09-27T09:44:00;1.50;;;1.10;;
34960;SDS011;30789;52.030;7.110;2022-09-27T09:46:30;1.98;;;0.75;;
34960;SDS011;30789;52.030;7.110;2022-09-27T09:48:59;1.10;;;0.60;;
34960;SDS011;30789;52.030;7.110;2022-09-27T09:51:33;3.22;;;0.90;;
34960;SDS011;30789;52.030;7.110;2022-09-27T09:54:02;2.40;;;1.00;;
34960;SDS011;30789;52.030;7.110;2022-09-27T09:56:31;1.35;;;0.90;;
34960;SDS011;30789;52.030;7.110;2022-09-27T09:58:59;2.47;;;1.08;;
34960;SDS011;30789;52.030;7.110;2022-09-27T10:01:29;3.88;;;1.33;;
34960;SDS011;30789;52.030;7.110;2022-09-27T10:03:58;1.33;;;1.00;;
34960;SDS011;30789;52.030;7.110;2022-09-27T10:06:24;1.17;;;0.90;;
34960;SDS011;30789;52.030;7.110;2022-09-27T10:08:51;2.75;;;0.90;;
34960;SDS011;30789;52.030;7.110;2022-09-27T10:11:20;2.03;;;1.35;;
34960;SDS011;30789;52.030;7.110;2022-09-27T10:13:49;1.65;;;0.93;;
34960;SDS011;30789;52.030;7.110;2022-09-27T10:16:16;1.52;;;1.13;;
34960;SDS011;30789;52.030;7.110;2022-09-27T10:18:43;1.48;;;1.17;;
34960;SDS011;30789;52.030;7.110;2022-09-27T10:21:10;1.67;;;1.20;;
34960;SDS011;30789;52.030;7.110;2022-09-27T10:26:19;3.30;;;0.70;;
34960;SDS011;30789;52.030;7.110;2022-09-27T10:28:45;3.47;;;0.90;;
34960;SDS011;30789;52.030;7.110;2022-09-27T10:31:17;1.75;;;0.63;;
34960;SDS011;30789;52.030;7.110;2022-09-27T10:33:50;2.15;;;0.75;;
34960;SDS011;30789;52.030;7.110;2022-09-27T10:36:21;0.90;;;0.50;;
34960;SDS011;30789;52.030;7.110;2022-09-27T10:38:50;1.45;;;0.43;;
34960;SDS011;30789;52.030;7.110;2022-09-27T10:41:20;1.75;;;0.52;;
34960;SDS011;30789;52.030;7.110;2022-09-27T10:43:48;1.13;;;0.52;;
34960;SDS011;30789;52.030;7.110;2022-09-27T10:46:18;0.90;;;0.50;;
34960;SDS011;30789;52.030;7.110;2022-09-27T10:48:48;1.80;;;1.00;;
34960;SDS011;30789;52.030;7.110;2022-09-27T10:51:32;1.40;;;0.80;;
34960;SDS011;30789;52.030;7.110;2022-09-27T10:53:59;0.77;;;0.47;;
34960;SDS011;30789;52.030;7.110;2022-09-27T10:56:26;4.25;;;0.90;;
34960;SDS011;30789;52.030;7.110;2022-09-27T10:58:53;1.23;;;0.68;;
34960;SDS011;30789;52.030;7.110;2022-09-27T11:01:21;2.67;;;0.90;;
34960;SDS011;30789;52.030;7.110;2022-09-27T11:03:48;1.45;;;0.82;;
34960;SDS011;30789;52.030;7.110;2022-09-27T11:06:24;3.60;;;1.00;;
34960;SDS011;30789;52.030;7.110;2022-09-27T11:08:52;2.95;;;0.90;;
34960;SDS011;30789;52.030;7.110;2022-09-27T11:11:20;4.47;;;0.75;;
34960;SDS011;30789;52.030;7.110;2022-09-27T11:13:59;1.83;;;0.80;;
34960;SDS011;30789;52.030;7.110;2022-09-27T11:19:25;2.20;;;1.23;;
34960;SDS011;30789;52.030;7.110;2022-09-27T11:21:56;2.75;;;1.15;;
34960;SDS011;30789;52.030;7.110;2022-09-27T11:24:36;1.60;;;1.20;;
34960;SDS011;30789;52.030;7.110;2022-09-27T11:27:09;2.35;;;1.00;;
34960;SDS011;30789;52.030;7.110;2022-09-27T11:29:39;4.22;;;1.35;;
34960;SDS011;30789;52.030;7.110;2022-09-27T11:32:12;4.05;;;1.17;;
34960;SDS011;30789;52.030;7.110;2022-09-27T11:34:56;1.88;;;1.30;;
34960;SDS011;30789;52.030;7.110;2022-09-27T11:37:26;1.20;;;1.10;;
34960;SDS011;30789;52.030;7.110;2022-09-27T11:42:46;2.20;;;1.20;;
34960;SDS011;30789;52.030;7.110;2022-09-27T11:45:20;2.40;;;1.35;;
34960;SDS011;30789;52.030;7.110;2022-09-27T11:47:52;2.20;;;1.23;;
34960;SDS011;30789;52.030;7.110;2022-09-27T11:50:36;1.38;;;1.10;;
34960;SDS011;30789;52.030;7.110;2022-09-27T11:53:11;1.45;;;1.20;;
34960;SDS011;30789;52.030;7.110;2022-09-27T11:55:43;1.80;;;1.30;;
34960;SDS011;30789;52.030;7.110;2022-09-27T11:58:17;1.40;;;1.30;;
34960;SDS011;30789;52.030;7.110;2022-09-27T12:00:50;4.65;;;1.45;;
34960;SDS011;30789;52.030;7.110;2022-09-27T12:03:36;3.10;;;1.40;;
34960;SDS011;30789;52.030;7.110;2022-09-27T12:06:08;1.63;;;1.25;;
34960;SDS011;30789;52.030;7.110;2022-09-27T12:08:41;1.88;;;0.95;;
34960;SDS011;30789;52.030;7.110;2022-09-27T12:11:11;1.77;;;1.10;;
34960;SDS011;30789;52.030;7.110;2022-09-27T12:13:40;7.43;;;1.20;;
34960;SDS011;30789;52.030;7.110;2022-09-27T12:16:08;1.42;;;0.73;;
34960;SDS011;30789;52.030;7.110;2022-09-27T12:18:35;1.98;;;1.00;;
34960;SDS011;30789;52.030;7.110;2022-09-27T12:21:03;3.55;;;0.80;;
34960;SDS011;30789;52.030;7.110;2022-09-27T12:23:35;0.52;;;0.52;;
34960;SDS011;30789;52.030;7.110;2022-09-27T12:26:05;0.73;;;0.35;;
34960;SDS011;30789;52.030;7.110;2022-09-27T12:28:35;0.38;;;0.30;;
34960;SDS011;30789;52.030;7.110;2022-09-27T12:31:05;0.30;;;0.10;;
34960;SDS011;30789;52.030;7.110;2022-09-27T12:33:35;2.17;;;0.30;;
34960;SDS011;30789;52.030;7.110;2022-09-27T12:36:05;0.90;;;0.13;;
34960;SDS011;30789;52.030;7.110;2022-09-27T12:38:36;0.35;;;0.20;;
34960;SDS011;30789;52.030;7.110;2022-09-27T12:41:04;1.75;;;0.50;;
34960;SDS011;30789;52.030;7.110;2022-09-27T12:43:32;3.72;;;0.70;;
34960;SDS011;30789;52.030;7.110;2022-09-27T12:46:02;1.90;;;0.50;;
34960;SDS011;30789;52.030;7.110;2022-09-27T12:48:34;0.75;;;0.50;;
34960;SDS011;30789;52.030;7.110;2022-09-27T12:51:05;1.50;;;0.70;;
34960;SDS011;30789;52.030;7.110;2022-09-27T12:53:36;2.53;;;0.88;;
34960;SDS011;30789;52.030;7.110;2022-09-27T12:56:11;1.33;;;0.75;;
34960;SDS011;30789;52.030;7.110;2022-09-27T12:58:42;3.35;;;0.82;;
34960;SDS011;30789;52.030;7.110;2022-09-27T13:01:17;2.35;;;0.98;;
34960;SDS011;30789;52.030;7.110;2022-09-27T13:03:49;1.30;;;0.77;;
34960;SDS011;30789;52.030;7.110;2022-09-27T13:06:32;1.95;;;0.80;;
34960;SDS011;30789;52.030;7.110;2022-09-27T13:11:49;2.00;;;0.88;;
34960;SDS011;30789;52.030;7.110;2022-09-27T13:14:17;1.33;;;0.75;;
34960;SDS011;30789;52.030;7.110;2022-09-27T13:16:44;1.90;;;0.90;;
34960;SDS011;30789;52.030;7.110;2022-09-27T13:19:35;2.08;;;0.93;;
34960;SDS011;30789;52.030;7.110;2022-09-27T13:22:02;1.77;;;0.75;;
34960;SDS011;30789;52.030;7.110;2022-09-27T13:24:38;1.00;;;0.60;;
34960;SDS011;30789;52.030;7.110;2022-09-27T13:29:48;0.82;;;0.52;;
34960;SDS011;30789;52.030;7.110;2022-09-27T13:32:15;2.20;;;0.32;;
34960;SDS011;30789;52.030;7.110;2022-09-27T13:34:42;1.70;;;0.47;;
34960;SDS011;30789;52.030;7.110;2022-09-27T13:40:10;0.98;;;0.50;;
34960;SDS011;30789;52.030;7.110;2022-09-27T13:42:43;1.15;;;0.52;;
34960;SDS011;30789;52.030;7.110;2022-09-27T13:45:20;2.03;;;0.50;;
34960;SDS011;30789;52.030;7.110;2022-09-27T13:47:48;1.48;;;0.57;;
34960;SDS011;30789;52.030;7.110;2022-09-27T13:50:17;1.15;;;0.57;;
34960;SDS011;30789;52.030;7.110;2022-09-27T13:52:44;2.67;;;0.40;;
34960;SDS011;30789;52.030;7.110;2022-09-27T13:55:38;0.63;;;0.30;;
34960;SDS011;30789;52.030;7.110;2022-09-27T13:58:11;5.57;;;0.50;;
34960;SDS011;30789;52.030;7.110;2022-09-27T14:00:42;3.00;;;0.40;;
34960;SDS011;30789;52.030;7.110;2022-09-27T14:03:30;0.52;;;0.30;;
34960;SDS011;30789;52.030;7.110;2022-09-27T14:06:12;0.95;;;0.43;;
34960;SDS011;30789;52.030;7.110;2022-09-27T14:08:42;0.57;;;0.57;;
34960;SDS011;30789;52.030;7.110;2022-09-27T14:11:11;0.88;;;0.40;;
34960;SDS011;30789;52.030;7.110;2022-09-27T14:13:37;1.05;;;0.32;;
34960;SDS011;30789;52.030;7.110;2022-09-27T14:16:06;0.50;;;0.20;;
34960;SDS011;30789;52.030;7.110;2022-09-27T14:18:35;0.75;;;0.45;;
34960;SDS011;30789;52.030;7.110;2022-09-27T14:21:11;2.08;;;0.47;;
34960;SDS011;30789;52.030;7.110;2022-09-27T14:23:41;0.47;;;0.45;;
34960;SDS011;30789;52.030;7.110;2022-09-27T14:26:17;5.53;;;0.60;;
34960;SDS011;30789;52.030;7.110;2022-09-27T14:28:46;1.33;;;0.40;;
34960;SDS011;30789;52.030;7.110;2022-09-27T14:31:14;1.35;;;0.60;;
34960;SDS011;30789;52.030;7.110;2022-09-27T14:33:41;1.40;;;0.63;;
34960;SDS011;30789;52.030;7.110;2022-09-27T14:36:19;1.67;;;0.60;;
34960;SDS011;30789;52.030;7.110;2022-09-27T14:39:11;1.23;;;0.40;;
34960;SDS011;30789;52.030;7.110;2022-09-27T14:44:09;0.45;;;0.38;;
34960;SDS011;30789;52.030;7.110;2022-09-27T14:46:38;1.05;;;0.50;;
34960;SDS011;30789;52.030;7.110;2022-09-27T14:49:10;1.15;;;0.55;;
34960;SDS011;30789;52.030;7.110;2022-09-27T14:51:37;0.70;;;0.43;;
34960;SDS011;30789;52.030;7.110;2022-09-27T14:54:04;0.57;;;0.45;;
34960;SDS011;30789;52.030;7.110;2022-09-27T14:56:35;0.30;;;0.20;;
34960;SDS011;30789;52.030;7.110;2022-09-27T14:59:03;0.88;;;0.50;;
34960;SDS011;30789;52.030;7.110;2022-09-27T15:01:30;0.82;;;0.73;;
34960;SDS011;30789;52.030;7.110;2022-09-27T15:04:03;1.17;;;0.40;;
34960;SDS011;30789;52.030;7.110;2022-09-27T15:06:30;0.80;;;0.50;;
34960;SDS011;30789;52.030;7.110;2022-09-27T15:08:56;1.02;;;0.40;;
34960;SDS011;30789;52.030;7.110;2022-09-27T15:11:23;1.25;;;0.50;;
34960;SDS011;30789;52.030;7.110;2022-09-27T15:13:50;1.38;;;0.63;;
34960;SDS011;30789;52.030;7.110;2022-09-27T15:16:19;1.13;;;0.45;;
34960;SDS011;30789;52.030;7.110;2022-09-27T15:18:46;1.42;;;0.52;;
34960;SDS011;30789;52.030;7.110;2022-09-27T15:21:15;0.95;;;0.30;;
34960;SDS011;30789;52.030;7.110;2022-09-27T15:23:52;0.20;;;0.20;;
34960;SDS011;30789;52.030;7.110;2022-09-27T15:26:20;3.28;;;0.32;;
34960;SDS011;30789;52.030;7.110;2022-09-27T15:28:47;0.50;;;0.38;;
34960;SDS011;30789;52.030;7.110;2022-09-27T15:31:16;0.60;;;0.20;;
34960;SDS011;30789;52.030;7.110;2022-09-27T15:33:50;0.50;;;0.25;;
34960;SDS011;30789;52.030;7.110;2022-09-27T15:36:18;0.63;;;0.30;;